sensor_id;sensor_type;location;lat;lon;timestamp;P1;durP1;ratioP1;P2;durP2;ratioP2
24663;SDS011;12791;50.992;13.788;2022-11-23T04:04:38;37.25;;;20.13;;
24663;SDS011;12791;50.992;13.788;2022-11-23T04:07:05;37.38;;;20.23;;
24663;SDS011;12791;50.992;13.788;2022-11-23T04:09:31;35.97;;;20.23;;
24663;SDS011;12791;50.992;13.788;2022-11-23T04:11:58;36.20;;;19.58;;
24663;SDS011;12791;50.992;13.788;2022-11-23T04:16:53;36.85;;;20.63;;
24663;SDS011;12791;50.992;13.788;2022-11-23T04:19:20;38.60;;;21.02;;
24663;SDS011;12791;50.992;13.788;2022-11-23T04:21:48;35.35;;;20.00;;
24663;SDS011;12791;50.992;13.788;2022-11-23T04:24:15;33.53;;;19.20;;
24663;SDS011;12791;50.992;13.788;2022-11-23T04:26:41;37.15;;;19.23;;
24663;SDS011;12791;50.992;13.788;2022-11-23T04:29:08;35.58;;;18.90;;
24663;SDS011;12791;50.992;13.788;2022-11-23T04:31:35;35.28;;;19.70;;
24663;SDS011;12791;50.992;13.788;2022-11-23T04:34:02;33.63;;;18.55;;
24663;SDS011;12791;50.992;13.788;2022-11-23T04:36:29;32.72;;;18.15;;
24663;SDS011;12791;50.992;13.788;2022-11-23T04:38:57;34.17;;;18.17;;
24663;SDS011;12791;50.992;13.788;2022-11-23T04:41:23;34.08;;;18.15;;
24663;SDS011;12791;50.992;13.788;2022-11-23T04:43:50;31.40;;;18.42;;
24663;SDS011;12791;50.992;13.788;2022-11-23T04:46:17;32.20;;;17.83;;
24663;SDS011;12791;50.992;13.788;2022-11-23T04:48:44;28.83;;;16.73;;
24663;SDS011;12791;50.992;13.788;2022-11-23T04:51:11;35.47;;;18.75;;
24663;SDS011;12791;50.992;13.788;2022-11-23T04:53:38;32.28;;;17.70;;
24663;SDS011;12791;50.992;13.788;2022-11-23T04:56:07;35.08;;;18.27;;
24663;SDS011;12791;50.992;13.788;2022-11-23T04:58:33;31.17;;;16.65;;
24663;SDS011;12791;50.992;13.788;2022-11-23T05:01:01;30.90;;;17.58;;
24663;SDS011;12791;50.992;13.788;2022-11-23T05:03:29;35.58;;;18.90;;
24663;SDS011;12791;50.992;13.788;2022-11-23T05:05:59;31.08;;;18.30;;
24663;SDS011;12791;50.992;13.788;2022-11-23T05:08:26;30.65;;;17.75;;
24663;SDS011;12791;50.992;13.788;2022-11-23T05:10:53;34.78;;;19.63;;
24663;SDS011;12791;50.992;13.788;2022-11-23T05:13:21;30.80;;;17.35;;
24663;SDS011;12791;50.992;13.788;2022-11-23T05:15:48;32.60;;;17.20;;
24663;SDS011;12791;50.992;13.788;2022-11-23T05:18:15;31.80;;;18.60;;
24663;SDS011;12791;50.992;13.788;2022-11-23T05:20:42;33.10;;;18.67;;
24663;SDS011;12791;50.992;13.788;2022-11-23T05:23:10;31.95;;;17.55;;
24663;SDS011;12791;50.992;13.788;2022-11-23T05:25:37;31.83;;;18.40;;
24663;SDS011;12791;50.992;13.788;2022-11-23T05:28:04;33.17;;;19.15;;
24663;SDS011;12791;50.992;13.788;2022-11-23T05:30:32;38.60;;;20.23;;
24663;SDS011;12791;50.992;13.788;2022-11-23T05:32:59;35.88;;;19.27;;
24663;SDS011;12791;50.992;13.788;2022-11-23T05:35:26;36.63;;;19.20;;
24663;SDS011;12791;50.992;13.788;2022-11-23T05:37:53;34.65;;;19.30;;
24663;SDS011;12791;50.992;13.788;2022-11-23T05:40:20;36.65;;;19.23;;
24663;SDS011;12791;50.992;13.788;2022-11-23T05:42:47;34.88;;;18.65;;
24663;SDS011;12791;50.992;13.788;2022-11-23T05:45:13;34.22;;;18.90;;
24663;SDS011;12791;50.992;13.788;2022-11-23T05:47:41;36.25;;;19.90;;
24663;SDS011;12791;50.992;13.788;2022-11-23T05:50:08;34.05;;;19.90;;
24663;SDS011;12791;50.992;13.788;2022-11-23T05:52:35;35.17;;;19.10;;
24663;SDS011;12791;50.992;13.788;2022-11-23T05:55:02;33.88;;;18.45;;
24663;SDS011;12791;50.992;13.788;2022-11-23T05:57:29;32.20;;;19.13;;
24663;SDS011;12791;50.992;13.788;2022-11-23T05:59:56;38.17;;;19.88;;
24663;SDS011;12791;50.992;13.788;2022-11-23T06:02:23;36.20;;;19.60;;
24663;SDS011;12791;50.992;13.788;2022-11-23T06:04:51;39.42;;;22.05;;
24663;SDS011;12791;50.992;13.788;2022-11-23T06:07:18;35.10;;;20.63;;
24663;SDS011;12791;50.992;13.788;2022-11-23T06:09:45;36.08;;;20.45;;
24663;SDS011;12791;50.992;13.788;2022-11-23T06:12:12;38.10;;;23.40;;
24663;SDS011;12791;50.992;13.788;2022-11-23T06:14:38;41.22;;;23.73;;
24663;SDS011;12791;50.992;13.788;2022-11-23T06:17:05;49.17;;;32.15;;
24663;SDS011;12791;50.992;13.788;2022-11-23T06:19:32;40.10;;;24.10;;
24663;SDS011;12791;50.992;13.788;2022-11-23T06:22:00;39.42;;;21.77;;
24663;SDS011;12791;50.992;13.788;2022-11-23T06:24:27;37.67;;;22.13;;
24663;SDS011;12791;50.992;13.788;2022-11-23T06:26:54;36.00;;;20.17;;
24663;SDS011;12791;50.992;13.788;2022-11-23T06:29:21;36.80;;;20.80;;
24663;SDS011;12791;50.992;13.788;2022-11-23T06:31:48;37.70;;;20.38;;
24663;SDS011;12791;50.992;13.788;2022-11-23T06:34:14;36.65;;;19.92;;
24663;SDS011;12791;50.992;13.788;2022-11-23T06:36:41;35.25;;;19.48;;
24663;SDS011;12791;50.992;13.788;2022-11-23T06:39:09;37.50;;;21.92;;
24663;SDS011;12791;50.992;13.788;2022-11-23T06:41:37;41.28;;;22.45;;
24663;SDS011;12791;50.992;13.788;2022-11-23T06:44:04;46.42;;;23.25;;
24663;SDS011;12791;50.992;13.788;2022-11-23T06:46:31;40.55;;;21.38;;
24663;SDS011;12791;50.992;13.788;2022-11-23T06:48:58;42.25;;;22.13;;
24663;SDS011;12791;50.992;13.788;2022-11-23T06:51:25;42.47;;;22.05;;
24663;SDS011;12791;50.992;13.788;2022-11-23T06:53:51;41.85;;;21.98;;
24663;SDS011;12791;50.992;13.788;2022-11-23T06:56:19;37.88;;;21.67;;
24663;SDS011;12791;50.992;13.788;2022-11-23T06:58:46;36.47;;;21.27;;
24663;SDS011;12791;50.992;13.788;2022-11-23T07:01:13;38.25;;;21.27;;
24663;SDS011;12791;50.992;13.788;2022-11-23T07:03:40;38.08;;;21.13;;
24663;SDS011;12791;50.992;13.788;2022-11-23T07:06:07;39.35;;;21.30;;
24663;SDS011;12791;50.992;13.788;2022-11-23T07:08:35;41.90;;;22.45;;
24663;SDS011;12791;50.992;13.788;2022-11-23T07:11:07;40.17;;;22.55;;
24663;SDS011;12791;50.992;13.788;2022-11-23T07:13:36;39.97;;;21.10;;
24663;SDS011;12791;50.992;13.788;2022-11-23T07:16:03;41.65;;;22.00;;
24663;SDS011;12791;50.992;13.788;2022-11-23T07:18:30;40.53;;;22.08;;
24663;SDS011;12791;50.992;13.788;2022-11-23T07:20:57;49.45;;;29.98;;
24663;SDS011;12791;50.992;13.788;2022-11-23T07:23:24;66.15;;;40.50;;
24663;SDS011;12791;50.992;13.788;2022-11-23T07:25:51;107.03;;;69.68;;
24663;SDS011;12791;50.992;13.788;2022-11-23T07:28:18;88.88;;;58.95;;
24663;SDS011;12791;50.992;13.788;2022-11-23T07:30:48;69.82;;;44.47;;
24663;SDS011;12791;50.992;13.788;2022-11-23T07:33:15;47.15;;;30.95;;
24663;SDS011;12791;50.992;13.788;2022-11-23T07:35:42;38.78;;;24.80;;
24663;SDS011;12791;50.992;13.788;2022-11-23T07:38:09;38.80;;;23.35;;
24663;SDS011;12791;50.992;13.788;2022-11-23T07:40:36;39.67;;;22.40;;
24663;SDS011;12791;50.992;13.788;2022-11-23T07:43:04;39.55;;;21.75;;
24663;SDS011;12791;50.992;13.788;2022-11-23T07:45:31;38.20;;;21.98;;
24663;SDS011;12791;50.992;13.788;2022-11-23T07:48:00;37.97;;;22.10;;
24663;SDS011;12791;50.992;13.788;2022-11-23T07:50:29;37.85;;;21.85;;
24663;SDS011;12791;50.992;13.788;2022-11-23T07:52:56;38.03;;;22.10;;
24663;SDS011;12791;50.992;13.788;2022-11-23T07:55:23;37.83;;;21.60;;
24663;SDS011;12791;50.992;13.788;2022-11-23T07:57:50;39.30;;;21.27;;
24663;SDS011;12791;50.992;13.788;2022-11-23T08:00:18;40.70;;;21.48;;
24663;SDS011;12791;50.992;13.788;2022-11-23T08:02:45;40.88;;;21.77;;
24663;SDS011;12791;50.992;13.788;2022-11-23T08:05:14;34.92;;;19.95;;
24663;SDS011;12791;50.992;13.788;2022-11-23T08:07:41;40.55;;;23.02;;
24663;SDS011;12791;50.992;13.788;2022-11-23T08:10:09;37.63;;;20.48;;
24663;SDS011;12791;50.992;13.788;2022-11-23T08:12:36;34.80;;;19.92;;
24663;SDS011;12791;50.992;13.788;2022-11-23T08:15:03;36.75;;;20.88;;
24663;SDS011;12791;50.992;13.788;2022-11-23T08:17:31;39.53;;;21.40;;
24663;SDS011;12791;50.992;13.788;2022-11-23T08:19:57;37.92;;;20.98;;
24663;SDS011;12791;50.992;13.788;2022-11-23T08:22:25;37.65;;;21.55;;
24663;SDS011;12791;50.992;13.788;2022-11-23T08:24:52;39.65;;;22.33;;
24663;SDS011;12791;50.992;13.788;2022-11-23T08:27:19;39.58;;;21.55;;
24663;SDS011;12791;50.992;13.788;2022-11-23T08:29:46;37.97;;;23.35;;
24663;SDS011;12791;50.992;13.788;2022-11-23T08:32:13;40.70;;;22.80;;
24663;SDS011;12791;50.992;13.788;2022-11-23T08:34:40;40.55;;;25.00;;
24663;SDS011;12791;50.992;13.788;2022-11-23T08:37:08;41.80;;;24.33;;
24663;SDS011;12791;50.992;13.788;2022-11-23T08:39:36;40.42;;;23.10;;
24663;SDS011;12791;50.992;13.788;2022-11-23T08:42:03;40.85;;;23.33;;
24663;SDS011;12791;50.992;13.788;2022-11-23T08:44:29;39.55;;;22.33;;
24663;SDS011;12791;50.992;13.788;2022-11-23T08:46:56;38.70;;;22.92;;
24663;SDS011;12791;50.992;13.788;2022-11-23T08:49:23;37.38;;;21.27;;
24663;SDS011;12791;50.992;13.788;2022-11-23T08:51:50;42.22;;;23.33;;
24663;SDS011;12791;50.992;13.788;2022-11-23T08:54:18;38.65;;;21.75;;
24663;SDS011;12791;50.992;13.788;2022-11-23T08:56:48;35.95;;;22.73;;
24663;SDS011;12791;50.992;13.788;2022-11-23T08:59:15;47.60;;;23.40;;
24663;SDS011;12791;50.992;13.788;2022-11-23T09:01:43;37.65;;;23.13;;
24663;SDS011;12791;50.992;13.788;2022-11-23T09:04:10;38.78;;;22.73;;
24663;SDS011;12791;50.992;13.788;2022-11-23T09:06:37;42.60;;;22.88;;
24663;SDS011;12791;50.992;13.788;2022-11-23T09:09:03;35.75;;;20.48;;
24663;SDS011;12791;50.992;13.788;2022-11-23T09:11:30;41.13;;;23.02;;
24663;SDS011;12791;50.992;13.788;2022-11-23T09:13:58;40.05;;;23.33;;
24663;SDS011;12791;50.992;13.788;2022-11-23T09:16:25;43.42;;;23.25;;
24663;SDS011;12791;50.992;13.788;2022-11-23T09:18:54;40.45;;;22.50;;
24663;SDS011;12791;50.992;13.788;2022-11-23T09:21:21;43.20;;;23.75;;
24663;SDS011;12791;50.992;13.788;2022-11-23T09:23:53;40.20;;;22.48;;
24663;SDS011;12791;50.992;13.788;2022-11-23T09:26:20;43.70;;;24.65;;
24663;SDS011;12791;50.992;13.788;2022-11-23T09:28:47;40.15;;;22.90;;
24663;SDS011;12791;50.992;13.788;2022-11-23T09:31:15;42.60;;;25.05;;
24663;SDS011;12791;50.992;13.788;2022-11-23T09:33:42;41.78;;;23.80;;
24663;SDS011;12791;50.992;13.788;2022-11-23T09:36:09;37.72;;;23.10;;
24663;SDS011;12791;50.992;13.788;2022-11-23T09:38:36;39.05;;;23.02;;
24663;SDS011;12791;50.992;13.788;2022-11-23T09:41:05;40.70;;;22.05;;
24663;SDS011;12791;50.992;13.788;2022-11-23T09:43:44;42.00;;;22.63;;
24663;SDS011;12791;50.992;13.788;2022-11-23T09:46:21;38.47;;;22.85;;
24663;SDS011;12791;50.992;13.788;2022-11-23T09:49:04;42.17;;;23.25;;
24663;SDS011;12791;50.992;13.788;2022-11-23T09:51:36;40.08;;;23.08;;
24663;SDS011;12791;50.992;13.788;2022-11-23T09:54:04;41.20;;;23.05;;
24663;SDS011;12791;50.992;13.788;2022-11-23T09:56:38;41.33;;;23.55;;
24663;SDS011;12791;50.992;13.788;2022-11-23T09:59:11;36.22;;;22.20;;
24663;SDS011;12791;50.992;13.788;2022-11-23T10:01:44;42.92;;;22.75;;
24663;SDS011;12791;50.992;13.788;2022-11-23T10:04:12;38.15;;;22.42;;
24663;SDS011;12791;50.992;13.788;2022-11-23T10:06:43;45.15;;;25.13;;
24663;SDS011;12791;50.992;13.788;2022-11-23T10:09:17;46.30;;;25.77;;
24663;SDS011;12791;50.992;13.788;2022-11-23T10:14:50;46.03;;;24.90;;
24663;SDS011;12791;50.992;13.788;2022-11-23T10:17:27;43.95;;;25.17;;
24663;SDS011;12791;50.992;13.788;2022-11-23T10:20:15;47.90;;;24.23;;
24663;SDS011;12791;50.992;13.788;2022-11-23T10:22:56;40.30;;;24.25;;
24663;SDS011;12791;50.992;13.788;2022-11-23T10:25:25;44.08;;;24.98;;
24663;SDS011;12791;50.992;13.788;2022-11-23T10:27:55;45.85;;;25.58;;
24663;SDS011;12791;50.992;13.788;2022-11-23T10:30:25;47.38;;;26.77;;
24663;SDS011;12791;50.992;13.788;2022-11-23T10:32:54;41.72;;;23.38;;
24663;SDS011;12791;50.992;13.788;2022-11-23T10:35:26;44.05;;;24.23;;
24663;SDS011;12791;50.992;13.788;2022-11-23T10:37:59;39.30;;;22.77;;
24663;SDS011;12791;50.992;13.788;2022-11-23T10:40:33;39.22;;;21.63;;
24663;SDS011;12791;50.992;13.788;2022-11-23T10:43:07;40.28;;;23.00;;
24663;SDS011;12791;50.992;13.788;2022-11-23T10:45:40;40.70;;;22.48;;
24663;SDS011;12791;50.992;13.788;2022-11-23T10:48:08;37.67;;;22.00;;
24663;SDS011;12791;50.992;13.788;2022-11-23T10:50:36;35.97;;;21.02;;
24663;SDS011;12791;50.992;13.788;2022-11-23T10:53:18;33.30;;;19.80;;
24663;SDS011;12791;50.992;13.788;2022-11-23T10:55:48;33.28;;;20.35;;
24663;SDS011;12791;50.992;13.788;2022-11-23T10:58:25;34.65;;;19.45;;
24663;SDS011;12791;50.992;13.788;2022-11-23T11:00:57;34.78;;;21.52;;
24663;SDS011;12791;50.992;13.788;2022-11-23T11:03:28;36.38;;;20.92;;
24663;SDS011;12791;50.992;13.788;2022-11-23T11:05:57;31.80;;;19.48;;
24663;SDS011;12791;50.992;13.788;2022-11-23T11:08:24;37.97;;;21.90;;
24663;SDS011;12791;50.992;13.788;2022-11-23T11:10:58;36.35;;;20.05;;
24663;SDS011;12791;50.992;13.788;2022-11-23T11:13:28;39.35;;;22.10;;
24663;SDS011;12791;50.992;13.788;2022-11-23T11:15:57;36.22;;;20.98;;
24663;SDS011;12791;50.992;13.788;2022-11-23T11:18:28;36.15;;;20.33;;
24663;SDS011;12791;50.992;13.788;2022-11-23T11:20:58;36.78;;;22.48;;
24663;SDS011;12791;50.992;13.788;2022-11-23T11:23:27;38.30;;;20.63;;
24663;SDS011;12791;50.992;13.788;2022-11-23T11:26:02;33.05;;;20.15;;
24663;SDS011;12791;50.992;13.788;2022-11-23T11:28:33;35.95;;;19.88;;
24663;SDS011;12791;50.992;13.788;2022-11-23T11:31:08;32.35;;;20.50;;
24663;SDS011;12791;50.992;13.788;2022-11-23T11:33:49;35.90;;;19.55;;
24663;SDS011;12791;50.992;13.788;2022-11-23T11:36:21;32.97;;;19.45;;
24663;SDS011;12791;50.992;13.788;2022-11-23T11:38:50;38.40;;;20.33;;
24663;SDS011;12791;50.992;13.788;2022-11-23T11:41:20;33.75;;;18.52;;
24663;SDS011;12791;50.992;13.788;2022-11-23T11:43:49;33.50;;;19.58;;
24663;SDS011;12791;50.992;13.788;2022-11-23T11:46:24;29.55;;;18.02;;
24663;SDS011;12791;50.992;13.788;2022-11-23T11:48:58;31.95;;;18.60;;
24663;SDS011;12791;50.992;13.788;2022-11-23T11:51:31;31.30;;;18.67;;
24663;SDS011;12791;50.992;13.788;2022-11-23T11:54:02;29.90;;;18.10;;
24663;SDS011;12791;50.992;13.788;2022-11-23T11:56:37;29.08;;;18.45;;
24663;SDS011;12791;50.992;13.788;2022-11-23T11:59:10;33.17;;;19.17;;
24663;SDS011;12791;50.992;13.788;2022-11-23T12:01:42;30.95;;;18.27;;
24663;SDS011;12791;50.992;13.788;2022-11-23T12:04:19;30.83;;;19.17;;
24663;SDS011;12791;50.992;13.788;2022-11-23T12:06:52;37.60;;;21.08;;
24663;SDS011;12791;50.992;13.788;2022-11-23T12:09:21;33.75;;;19.30;;
24663;SDS011;12791;50.992;13.788;2022-11-23T12:11:52;33.97;;;19.23;;
24663;SDS011;12791;50.992;13.788;2022-11-23T12:14:19;33.95;;;20.02;;
24663;SDS011;12791;50.992;13.788;2022-11-23T12:16:48;37.38;;;21.33;;
24663;SDS011;12791;50.992;13.788;2022-11-23T12:19:23;37.97;;;21.80;;
24663;SDS011;12791;50.992;13.788;2022-11-23T12:22:01;35.38;;;19.83;;
24663;SDS011;12791;50.992;13.788;2022-11-23T12:24:47;30.50;;;18.65;;
24663;SDS011;12791;50.992;13.788;2022-11-23T12:27:27;34.97;;;20.48;;
24663;SDS011;12791;50.992;13.788;2022-11-23T12:30:03;35.15;;;19.73;;
24663;SDS011;12791;50.992;13.788;2022-11-23T12:32:45;33.15;;;18.77;;
24663;SDS011;12791;50.992;13.788;2022-11-23T12:35:41;35.80;;;20.40;;
24663;SDS011;12791;50.992;13.788;2022-11-23T12:38:19;33.05;;;19.65;;
24663;SDS011;12791;50.992;13.788;2022-11-23T12:43:49;34.90;;;19.73;;
24663;SDS011;12791;50.992;13.788;2022-11-23T12:46:26;33.60;;;20.45;;
24663;SDS011;12791;50.992;13.788;2022-11-23T12:49:06;36.15;;;20.90;;
24663;SDS011;12791;50.992;13.788;2022-11-23T12:51:50;31.75;;;20.48;;
24663;SDS011;12791;50.992;13.788;2022-11-23T12:54:30;39.92;;;22.92;;
24663;SDS011;12791;50.992;13.788;2022-11-23T12:57:07;52.17;;;27.95;;
24663;SDS011;12791;50.992;13.788;2022-11-23T13:02:14;38.85;;;22.40;;
24663;SDS011;12791;50.992;13.788;2022-11-23T13:05:29;40.92;;;23.25;;
24663;SDS011;12791;50.992;13.788;2022-11-23T13:11:20;37.28;;;22.38;;
24663;SDS011;12791;50.992;13.788;2022-11-23T13:14:01;38.38;;;22.48;;
24663;SDS011;12791;50.992;13.788;2022-11-23T13:19:41;36.80;;;21.63;;
24663;SDS011;12791;50.992;13.788;2022-11-23T13:22:29;40.20;;;23.25;;
24663;SDS011;12791;50.992;13.788;2022-11-23T13:25:00;39.92;;;24.73;;
24663;SDS011;12791;50.992;13.788;2022-11-23T13:27:40;41.83;;;23.50;;
24663;SDS011;12791;50.992;13.788;2022-11-23T13:30:21;40.03;;;23.50;;
24663;SDS011;12791;50.992;13.788;2022-11-23T13:35:57;40.70;;;23.63;;
24663;SDS011;12791;50.992;13.788;2022-11-23T13:44:23;38.38;;;23.25;;
24663;SDS011;12791;50.992;13.788;2022-11-23T13:46:59;35.28;;;22.27;;
24663;SDS011;12791;50.992;13.788;2022-11-23T13:49:29;38.97;;;23.98;;
24663;SDS011;12791;50.992;13.788;2022-11-23T13:54:54;39.42;;;22.48;;
24663;SDS011;12791;50.992;13.788;2022-11-23T13:57:26;40.15;;;21.88;;
24663;SDS011;12791;50.992;13.788;2022-11-23T13:59:55;42.38;;;23.30;;
24663;SDS011;12791;50.992;13.788;2022-11-23T14:06:02;41.00;;;23.17;;
24663;SDS011;12791;50.992;13.788;2022-11-23T14:08:31;44.63;;;23.95;;
24663;SDS011;12791;50.992;13.788;2022-11-23T14:10:59;41.78;;;23.58;;
24663;SDS011;12791;50.992;13.788;2022-11-23T14:13:34;44.95;;;24.42;;
24663;SDS011;12791;50.992;13.788;2022-11-23T14:16:02;40.20;;;23.73;;
24663;SDS011;12791;50.992;13.788;2022-11-23T14:18:38;42.70;;;24.48;;
24663;SDS011;12791;50.992;13.788;2022-11-23T14:21:30;48.90;;;25.92;;
24663;SDS011;12791;50.992;13.788;2022-11-23T14:24:06;48.47;;;27.88;;
24663;SDS011;12791;50.992;13.788;2022-11-23T14:26:58;46.63;;;26.92;;
24663;SDS011;12791;50.992;13.788;2022-11-23T14:32:22;43.00;;;25.02;;
24663;SDS011;12791;50.992;13.788;2022-11-23T14:35:03;41.10;;;25.05;;
24663;SDS011;12791;50.992;13.788;2022-11-23T14:37:49;43.22;;;25.10;;
24663;SDS011;12791;50.992;13.788;2022-11-23T14:40:27;50.03;;;27.67;;
24663;SDS011;12791;50.992;13.788;2022-11-23T14:43:11;46.63;;;26.67;;
24663;SDS011;12791;50.992;13.788;2022-11-23T14:45:41;43.22;;;25.90;;
24663;SDS011;12791;50.992;13.788;2022-11-23T14:48:24;50.55;;;27.33;;
24663;SDS011;12791;50.992;13.788;2022-11-23T14:50:54;44.55;;;26.40;;
24663;SDS011;12791;50.992;13.788;2022-11-23T14:53:23;49.03;;;28.17;;
24663;SDS011;12791;50.992;13.788;2022-11-23T14:55:53;46.88;;;26.83;;
24663;SDS011;12791;50.992;13.788;2022-11-23T14:58:21;64.10;;;33.72;;
24663;SDS011;12791;50.992;13.788;2022-11-23T15:00:49;67.43;;;35.03;;
24663;SDS011;12791;50.992;13.788;2022-11-23T15:03:18;71.25;;;36.40;;
24663;SDS011;12791;50.992;13.788;2022-11-23T15:05:53;73.28;;;39.40;;
24663;SDS011;12791;50.992;13.788;2022-11-23T15:08:24;68.07;;;36.80;;
24663;SDS011;12791;50.992;13.788;2022-11-23T15:10:56;51.25;;;28.77;;
24663;SDS011;12791;50.992;13.788;2022-11-23T15:15:56;41.30;;;23.40;;
24663;SDS011;12791;50.992;13.788;2022-11-23T15:18:29;39.65;;;23.48;;
24663;SDS011;12791;50.992;13.788;2022-11-23T15:21:00;38.80;;;22.70;;
24663;SDS011;12791;50.992;13.788;2022-11-23T15:23:32;39.85;;;22.65;;
24663;SDS011;12791;50.992;13.788;2022-11-23T15:26:01;40.17;;;23.42;;
24663;SDS011;12791;50.992;13.788;2022-11-23T15:28:31;43.03;;;23.83;;
24663;SDS011;12791;50.992;13.788;2022-11-23T15:31:15;40.70;;;24.60;;
24663;SDS011;12791;50.992;13.788;2022-11-23T15:33:44;43.63;;;25.95;;
24663;SDS011;12791;50.992;13.788;2022-11-23T15:36:15;42.00;;;24.45;;
24663;SDS011;12791;50.992;13.788;2022-11-23T15:38:44;43.05;;;25.10;;
24663;SDS011;12791;50.992;13.788;2022-11-23T15:41:11;40.50;;;24.27;;
24663;SDS011;12791;50.992;13.788;2022-11-23T15:43:49;40.17;;;23.15;;
24663;SDS011;12791;50.992;13.788;2022-11-23T15:46:17;39.70;;;23.17;;
24663;SDS011;12791;50.992;13.788;2022-11-23T15:48:46;38.53;;;22.75;;
24663;SDS011;12791;50.992;13.788;2022-11-23T15:51:21;39.92;;;22.92;;
24663;SDS011;12791;50.992;13.788;2022-11-23T15:53:54;42.70;;;24.13;;
24663;SDS011;12791;50.992;13.788;2022-11-23T15:56:26;34.85;;;22.90;;
24663;SDS011;12791;50.992;13.788;2022-11-23T15:58:55;40.67;;;23.50;;
24663;SDS011;12791;50.992;13.788;2022-11-23T16:01:23;39.63;;;23.25;;
24663;SDS011;12791;50.992;13.788;2022-11-23T16:03:51;42.78;;;24.80;;
24663;SDS011;12791;50.992;13.788;2022-11-23T16:06:27;39.20;;;23.77;;
24663;SDS011;12791;50.992;13.788;2022-11-23T16:09:00;45.75;;;25.58;;
24663;SDS011;12791;50.992;13.788;2022-11-23T16:11:28;43.00;;;24.02;;
24663;SDS011;12791;50.992;13.788;2022-11-23T16:14:13;44.45;;;26.05;;
24663;SDS011;12791;50.992;13.788;2022-11-23T16:16:43;43.67;;;24.63;;
24663;SDS011;12791;50.992;13.788;2022-11-23T16:19:18;43.30;;;25.48;;
24663;SDS011;12791;50.992;13.788;2022-11-23T16:21:54;40.33;;;24.75;;
24663;SDS011;12791;50.992;13.788;2022-11-23T16:24:24;49.90;;;27.17;;
24663;SDS011;12791;50.992;13.788;2022-11-23T16:26:52;52.38;;;28.67;;
24663;SDS011;12791;50.992;13.788;2022-11-23T16:29:20;44.08;;;25.90;;
24663;SDS011;12791;50.992;13.788;2022-11-23T16:31:53;41.40;;;25.08;;
24663;SDS011;12791;50.992;13.788;2022-11-23T16:34:22;44.60;;;25.17;;
24663;SDS011;12791;50.992;13.788;2022-11-23T16:36:51;45.20;;;26.63;;
24663;SDS011;12791;50.992;13.788;2022-11-23T16:39:21;44.63;;;26.40;;
24663;SDS011;12791;50.992;13.788;2022-11-23T16:41:48;42.83;;;24.95;;
24663;SDS011;12791;50.992;13.788;2022-11-23T16:44:15;45.35;;;26.55;;
24663;SDS011;12791;50.992;13.788;2022-11-23T16:46:42;44.63;;;26.35;;
24663;SDS011;12791;50.992;13.788;2022-11-23T16:49:12;49.60;;;27.45;;
24663;SDS011;12791;50.992;13.788;2022-11-23T16:51:41;48.08;;;26.92;;
24663;SDS011;12791;50.992;13.788;2022-11-23T16:54:08;43.45;;;24.60;;
24663;SDS011;12791;50.992;13.788;2022-11-23T16:56:36;42.97;;;24.85;;
24663;SDS011;12791;50.992;13.788;2022-11-23T16:59:05;42.35;;;24.85;;
24663;SDS011;12791;50.992;13.788;2022-11-23T17:01:34;41.05;;;24.05;;
24663;SDS011;12791;50.992;13.788;2022-11-23T17:04:04;39.88;;;23.83;;
24663;SDS011;12791;50.992;13.788;2022-11-23T17:06:31;40.95;;;24.27;;
24663;SDS011;12791;50.992;13.788;2022-11-23T17:08:57;41.50;;;22.90;;
24663;SDS011;12791;50.992;13.788;2022-11-23T17:11:25;35.55;;;21.25;;
24663;SDS011;12791;50.992;13.788;2022-11-23T17:13:54;37.72;;;21.08;;
24663;SDS011;12791;50.992;13.788;2022-11-23T17:16:22;39.70;;;23.33;;
24663;SDS011;12791;50.992;13.788;2022-11-23T17:18:51;46.97;;;26.92;;
24663;SDS011;12791;50.992;13.788;2022-11-23T17:21:18;44.92;;;25.73;;
24663;SDS011;12791;50.992;13.788;2022-11-23T17:23:45;45.40;;;26.08;;
24663;SDS011;12791;50.992;13.788;2022-11-23T17:26:19;45.88;;;26.38;;
24663;SDS011;12791;50.992;13.788;2022-11-23T17:28:56;45.17;;;26.27;;
24663;SDS011;12791;50.992;13.788;2022-11-23T17:31:26;42.45;;;25.52;;
24663;SDS011;12791;50.992;13.788;2022-11-23T17:33:53;46.10;;;27.58;;
24663;SDS011;12791;50.992;13.788;2022-11-23T17:36:19;44.72;;;26.95;;
24663;SDS011;12791;50.992;13.788;2022-11-23T17:38:46;42.20;;;26.17;;
24663;SDS011;12791;50.992;13.788;2022-11-23T17:41:14;45.22;;;26.25;;
24663;SDS011;12791;50.992;13.788;2022-11-23T17:43:41;45.90;;;26.73;;
24663;SDS011;12791;50.992;13.788;2022-11-23T17:46:12;44.95;;;26.33;;
24663;SDS011;12791;50.992;13.788;2022-11-23T17:48:42;46.13;;;27.63;;
24663;SDS011;12791;50.992;13.788;2022-11-23T17:51:09;48.03;;;28.45;;
24663;SDS011;12791;50.992;13.788;2022-11-23T17:53:37;43.05;;;26.35;;
24663;SDS011;12791;50.992;13.788;2022-11-23T17:56:04;45.38;;;27.98;;
24663;SDS011;12791;50.992;13.788;2022-11-23T17:58:31;43.78;;;25.98;;
24663;SDS011;12791;50.992;13.788;2022-11-23T18:00:58;44.10;;;26.80;;
24663;SDS011;12791;50.992;13.788;2022-11-23T18:03:26;47.35;;;28.30;;
24663;SDS011;12791;50.992;13.788;2022-11-23T18:05:53;40.33;;;25.60;;
24663;SDS011;12791;50.992;13.788;2022-11-23T18:08:19;44.08;;;26.38;;
24663;SDS011;12791;50.992;13.788;2022-11-23T18:10:46;45.20;;;26.13;;
24663;SDS011;12791;50.992;13.788;2022-11-23T18:13:13;44.22;;;25.60;;
24663;SDS011;12791;50.992;13.788;2022-11-23T18:15:40;43.75;;;24.67;;
24663;SDS011;12791;50.992;13.788;2022-11-23T18:18:07;39.30;;;23.55;;
24663;SDS011;12791;50.992;13.788;2022-11-23T18:20:35;43.92;;;24.27;;
24663;SDS011;12791;50.992;13.788;2022-11-23T18:23:01;40.42;;;24.58;;
24663;SDS011;12791;50.992;13.788;2022-11-23T18:25:28;44.28;;;25.35;;
24663;SDS011;12791;50.992;13.788;2022-11-23T18:27:55;40.00;;;23.85;;
24663;SDS011;12791;50.992;13.788;2022-11-23T18:30:22;43.88;;;24.95;;
24663;SDS011;12791;50.992;13.788;2022-11-23T18:32:48;40.60;;;24.40;;
24663;SDS011;12791;50.992;13.788;2022-11-23T18:35:15;40.35;;;24.35;;
24663;SDS011;12791;50.992;13.788;2022-11-23T18:37:43;35.95;;;21.92;;
24663;SDS011;12791;50.992;13.788;2022-11-23T18:40:11;33.85;;;21.63;;
24663;SDS011;12791;50.992;13.788;2022-11-23T18:42:38;33.50;;;21.40;;
24663;SDS011;12791;50.992;13.788;2022-11-23T18:45:05;34.42;;;20.83;;
24663;SDS011;12791;50.992;13.788;2022-11-23T18:47:32;34.13;;;21.17;;
24663;SDS011;12791;50.992;13.788;2022-11-23T18:49:59;35.88;;;21.73;;
24663;SDS011;12791;50.992;13.788;2022-11-23T18:52:26;36.00;;;20.80;;
24663;SDS011;12791;50.992;13.788;2022-11-23T18:54:54;35.58;;;20.52;;
24663;SDS011;12791;50.992;13.788;2022-11-23T18:57:21;34.90;;;20.65;;
24663;SDS011;12791;50.992;13.788;2022-11-23T18:59:48;38.67;;;24.13;;
24663;SDS011;12791;50.992;13.788;2022-11-23T19:02:14;38.35;;;23.77;;
24663;SDS011;12791;50.992;13.788;2022-11-23T19:04:41;39.55;;;23.98;;
24663;SDS011;12791;50.992;13.788;2022-11-23T19:07:08;40.08;;;24.35;;